sensor_id;sensor_type;location;lat;lon;timestamp;P1;durP1;ratioP1;P2;durP2;ratioP2
71183;SDS011;58887;51.980;4.464;2023-04-15T00:00:11;29.82;;;29.82;;
71183;SDS011;58887;51.980;4.464;2023-04-15T00:02:37;20.00;;;20.00;;
71183;SDS011;58887;51.980;4.464;2023-04-15T00:05:03;19.05;;;19.05;;
71183;SDS011;58887;51.980;4.464;2023-04-15T00:07:30;34.20;;;34.20;;
71183;SDS011;58887;51.980;4.464;2023-04-15T00:09:56;30.40;;;30.40;;
71183;SDS011;58887;51.980;4.464;2023-04-15T00:12:25;43.30;;;43.30;;
71183;SDS011;58887;51.980;4.464;2023-04-15T00:14:51;76.29;;;76.29;;
71183;SDS011;58887;51.980;4.464;2023-04-15T00:17:17;94.77;;;94.77;;
71183;SDS011;58887;51.980;4.464;2023-04-15T00:19:43;117.86;;;117.86;;
71183;SDS011;58887;51.980;4.464;2023-04-15T00:22:10;99.14;;;99.14;;
71183;SDS011;58887;51.980;4.464;2023-04-15T00:24:36;99.21;;;99.21;;
71183;SDS011;58887;51.980;4.464;2023-04-15T00:27:02;103.04;;;103.04;;
71183;SDS011;58887;51.980;4.464;2023-04-15T00:29:28;76.01;;;76.01;;
71183;SDS011;58887;51.980;4.464;2023-04-15T00:31:54;84.31;;;84.31;;
71183;SDS011;58887;51.980;4.464;2023-04-15T00:34:21;150.99;;;150.99;;
71183;SDS011;58887;51.980;4.464;2023-04-15T00:36:48;156.36;;;156.36;;
71183;SDS011;58887;51.980;4.464;2023-04-15T00:39:14;142.57;;;142.57;;
71183;SDS011;58887;51.980;4.464;2023-04-15T00:41:40;150.09;;;150.09;;
71183;SDS011;58887;51.980;4.464;2023-04-15T00:44:07;117.62;;;117.62;;
71183;SDS011;58887;51.980;4.464;2023-04-15T00:46:37;172.59;;;172.59;;
71183;SDS011;58887;51.980;4.464;2023-04-15T00:49:04;189.54;;;189.54;;
71183;SDS011;58887;51.980;4.464;2023-04-15T00:51:31;163.53;;;163.53;;
71183;SDS011;58887;51.980;4.464;2023-04-15T00:53:58;163.36;;;163.36;;
71183;SDS011;58887;51.980;4.464;2023-04-15T00:56:24;211.23;;;211.23;;
71183;SDS011;58887;51.980;4.464;2023-04-15T00:59:03;274.27;;;274.27;;
71183;SDS011;58887;51.980;4.464;2023-04-15T01:01:33;659.48;;;659.48;;
71183;SDS011;58887;51.980;4.464;2023-04-15T01:04:00;908.69;;;908.69;;
71183;SDS011;58887;51.980;4.464;2023-04-15T01:06:26;1169.07;;;1169.07;;
71183;SDS011;58887;51.980;4.464;2023-04-15T01:08:55;609.87;;;609.87;;
71183;SDS011;58887;51.980;4.464;2023-04-15T01:11:22;570.85;;;570.85;;
71183;SDS011;58887;51.980;4.464;2023-04-15T01:13:52;519.21;;;519.21;;
71183;SDS011;58887;51.980;4.464;2023-04-15T01:16:22;438.17;;;438.17;;
71183;SDS011;58887;51.980;4.464;2023-04-15T01:18:50;456.34;;;456.34;;
71183;SDS011;58887;51.980;4.464;2023-04-15T01:21:16;462.41;;;462.41;;
71183;SDS011;58887;51.980;4.464;2023-04-15T01:23:43;488.51;;;488.51;;
71183;SDS011;58887;51.980;4.464;2023-04-15T01:26:11;472.90;;;472.90;;
71183;SDS011;58887;51.980;4.464;2023-04-15T01:28:37;472.47;;;472.47;;
71183;SDS011;58887;51.980;4.464;2023-04-15T01:31:07;621.45;;;621.45;;
71183;SDS011;58887;51.980;4.464;2023-04-15T01:33:36;485.54;;;485.54;;
71183;SDS011;58887;51.980;4.464;2023-04-15T01:36:02;511.75;;;511.75;;
71183;SDS011;58887;51.980;4.464;2023-04-15T01:38:29;659.31;;;659.31;;
71183;SDS011;58887;51.980;4.464;2023-04-15T01:40:55;493.57;;;493.57;;
71183;SDS011;58887;51.980;4.464;2023-04-15T01:43:21;513.87;;;513.87;;
71183;SDS011;58887;51.980;4.464;2023-04-15T01:45:47;485.60;;;485.60;;
71183;SDS011;58887;51.980;4.464;2023-04-15T01:48:12;477.67;;;477.67;;
71183;SDS011;58887;51.980;4.464;2023-04-15T01:50:38;504.60;;;504.60;;
71183;SDS011;58887;51.980;4.464;2023-04-15T01:53:04;539.32;;;539.32;;
71183;SDS011;58887;51.980;4.464;2023-04-15T01:55:31;551.30;;;551.30;;
71183;SDS011;58887;51.980;4.464;2023-04-15T01:57:57;571.95;;;571.95;;
71183;SDS011;58887;51.980;4.464;2023-04-15T02:00:22;584.66;;;584.66;;
71183;SDS011;58887;51.980;4.464;2023-04-15T02:02:48;588.48;;;588.48;;
71183;SDS011;58887;51.980;4.464;2023-04-15T02:05:13;599.51;;;599.51;;
71183;SDS011;58887;51.980;4.464;2023-04-15T02:07:41;613.60;;;613.60;;
71183;SDS011;58887;51.980;4.464;2023-04-15T02:10:07;630.74;;;630.74;;
71183;SDS011;58887;51.980;4.464;2023-04-15T02:12:33;624.96;;;624.96;;
71183;SDS011;58887;51.980;4.464;2023-04-15T02:14:59;619.64;;;619.64;;
71183;SDS011;58887;51.980;4.464;2023-04-15T02:17:24;640.18;;;640.18;;
71183;SDS011;58887;51.980;4.464;2023-04-15T02:19:50;656.39;;;656.39;;
71183;SDS011;58887;51.980;4.464;2023-04-15T02:22:15;646.31;;;646.31;;
71183;SDS011;58887;51.980;4.464;2023-04-15T02:24:42;655.63;;;655.63;;
71183;SDS011;58887;51.980;4.464;2023-04-15T02:27:10;647.42;;;647.42;;
71183;SDS011;58887;51.980;4.464;2023-04-15T02:29:39;628.93;;;628.93;;
71183;SDS011;58887;51.980;4.464;2023-04-15T02:32:05;619.35;;;619.35;;
71183;SDS011;58887;51.980;4.464;2023-04-15T02:34:32;590.20;;;590.20;;
71183;SDS011;58887;51.980;4.464;2023-04-15T02:36:58;580.41;;;580.41;;
71183;SDS011;58887;51.980;4.464;2023-04-15T02:39:23;573.07;;;573.07;;
71183;SDS011;58887;51.980;4.464;2023-04-15T02:41:49;571.59;;;571.59;;
71183;SDS011;58887;51.980;4.464;2023-04-15T02:44:17;658.94;;;654.26;;
71183;SDS011;58887;51.980;4.464;2023-04-15T02:46:47;672.89;;;671.03;;
71183;SDS011;58887;51.980;4.464;2023-04-15T02:49:17;671.32;;;671.32;;
71183;SDS011;58887;51.980;4.464;2023-04-15T02:51:43;670.97;;;670.97;;
71183;SDS011;58887;51.980;4.464;2023-04-15T02:54:11;659.58;;;659.58;;
71183;SDS011;58887;51.980;4.464;2023-04-15T02:56:37;660.44;;;660.44;;
71183;SDS011;58887;51.980;4.464;2023-04-15T02:59:02;658.61;;;658.61;;
71183;SDS011;58887;51.980;4.464;2023-04-15T03:01:28;661.36;;;661.36;;
71183;SDS011;58887;51.980;4.464;2023-04-15T03:03:54;644.96;;;644.96;;
71183;SDS011;58887;51.980;4.464;2023-04-15T03:06:19;639.17;;;639.17;;
71183;SDS011;58887;51.980;4.464;2023-04-15T03:08:45;644.21;;;644.21;;
71183;SDS011;58887;51.980;4.464;2023-04-15T03:11:10;593.53;;;593.53;;
71183;SDS011;58887;51.980;4.464;2023-04-15T03:13:37;550.05;;;550.05;;
71183;SDS011;58887;51.980;4.464;2023-04-15T03:16:05;518.44;;;518.44;;
71183;SDS011;58887;51.980;4.464;2023-04-15T03:18:31;507.63;;;507.63;;
71183;SDS011;58887;51.980;4.464;2023-04-15T03:21:00;501.69;;;501.69;;
71183;SDS011;58887;51.980;4.464;2023-04-15T03:23:26;561.91;;;561.91;;
71183;SDS011;58887;51.980;4.464;2023-04-15T03:25:51;591.70;;;591.70;;
71183;SDS011;58887;51.980;4.464;2023-04-15T03:28:20;660.18;;;660.18;;
71183;SDS011;58887;51.980;4.464;2023-04-15T03:30:45;701.09;;;701.09;;
71183;SDS011;58887;51.980;4.464;2023-04-15T03:33:11;708.30;;;708.30;;
71183;SDS011;58887;51.980;4.464;2023-04-15T03:35:36;721.70;;;721.70;;
71183;SDS011;58887;51.980;4.464;2023-04-15T03:38:02;735.63;;;735.63;;
71183;SDS011;58887;51.980;4.464;2023-04-15T03:40:28;726.63;;;726.63;;
71183;SDS011;58887;51.980;4.464;2023-04-15T03:42:53;723.80;;;723.80;;
71183;SDS011;58887;51.980;4.464;2023-04-15T03:45:19;689.40;;;689.40;;
71183;SDS011;58887;51.980;4.464;2023-04-15T03:47:45;710.69;;;710.69;;
71183;SDS011;58887;51.980;4.464;2023-04-15T03:50:11;1666.40;;;1666.40;;
71183;SDS011;58887;51.980;4.464;2023-04-15T03:52:37;1209.29;;;1209.29;;
71183;SDS011;58887;51.980;4.464;2023-04-15T03:55:02;947.91;;;947.91;;
71183;SDS011;58887;51.980;4.464;2023-04-15T03:57:28;845.97;;;845.97;;
71183;SDS011;58887;51.980;4.464;2023-04-15T03:59:54;725.62;;;725.62;;
71183;SDS011;58887;51.980;4.464;2023-04-15T04:02:19;617.73;;;617.73;;
71183;SDS011;58887;51.980;4.464;2023-04-15T04:04:47;459.26;;;459.26;;
71183;SDS011;58887;51.980;4.464;2023-04-15T04:07:15;477.52;;;477.52;;
71183;SDS011;58887;51.980;4.464;2023-04-15T04:09:42;459.85;;;459.85;;
71183;SDS011;58887;51.980;4.464;2023-04-15T04:12:09;476.88;;;476.88;;
71183;SDS011;58887;51.980;4.464;2023-04-15T04:14:35;484.75;;;484.75;;
71183;SDS011;58887;51.980;4.464;2023-04-15T04:17:01;459.93;;;459.93;;
71183;SDS011;58887;51.980;4.464;2023-04-15T04:19:34;425.48;;;425.48;;
71183;SDS011;58887;51.980;4.464;2023-04-15T04:22:04;327.06;;;327.06;;
71183;SDS011;58887;51.980;4.464;2023-04-15T04:27:00;312.11;;;312.11;;
71183;SDS011;58887;51.980;4.464;2023-04-15T04:29:27;305.27;;;305.27;;
71183;SDS011;58887;51.980;4.464;2023-04-15T04:31:52;288.08;;;288.08;;
71183;SDS011;58887;51.980;4.464;2023-04-15T04:34:18;178.77;;;178.77;;
71183;SDS011;58887;51.980;4.464;2023-04-15T04:36:43;119.69;;;119.69;;
71183;SDS011;58887;51.980;4.464;2023-04-15T04:39:09;132.10;;;132.10;;
71183;SDS011;58887;51.980;4.464;2023-04-15T04:41:34;122.28;;;122.28;;
71183;SDS011;58887;51.980;4.464;2023-04-15T04:44:00;114.44;;;114.44;;
71183;SDS011;58887;51.980;4.464;2023-04-15T04:46:26;124.75;;;124.75;;
71183;SDS011;58887;51.980;4.464;2023-04-15T04:48:51;131.88;;;131.88;;
71183;SDS011;58887;51.980;4.464;2023-04-15T04:51:17;84.62;;;84.62;;
71183;SDS011;58887;51.980;4.464;2023-04-15T04:53:43;97.57;;;97.57;;
71183;SDS011;58887;51.980;4.464;2023-04-15T04:56:09;109.17;;;109.17;;
71183;SDS011;58887;51.980;4.464;2023-04-15T04:58:35;93.94;;;93.94;;
71183;SDS011;58887;51.980;4.464;2023-04-15T05:01:00;140.01;;;140.01;;
71183;SDS011;58887;51.980;4.464;2023-04-15T05:03:27;214.35;;;214.35;;
71183;SDS011;58887;51.980;4.464;2023-04-15T05:05:53;269.58;;;268.98;;
71183;SDS011;58887;51.980;4.464;2023-04-15T05:08:20;253.34;;;252.88;;
71183;SDS011;58887;51.980;4.464;2023-04-15T05:10:46;293.79;;;293.79;;
71183;SDS011;58887;51.980;4.464;2023-04-15T05:13:12;232.24;;;232.24;;
71183;SDS011;58887;51.980;4.464;2023-04-15T05:15:38;209.84;;;209.84;;
71183;SDS011;58887;51.980;4.464;2023-04-15T05:18:06;259.97;;;259.97;;
71183;SDS011;58887;51.980;4.464;2023-04-15T05:20:31;323.08;;;323.08;;
71183;SDS011;58887;51.980;4.464;2023-04-15T05:22:57;426.03;;;426.03;;
71183;SDS011;58887;51.980;4.464;2023-04-15T05:25:22;422.18;;;422.18;;
71183;SDS011;58887;51.980;4.464;2023-04-15T05:27:48;456.57;;;456.57;;
71183;SDS011;58887;51.980;4.464;2023-04-15T05:30:16;441.01;;;440.04;;
71183;SDS011;58887;51.980;4.464;2023-04-15T05:32:41;419.07;;;419.07;;
71183;SDS011;58887;51.980;4.464;2023-04-15T05:35:07;401.03;;;401.03;;
71183;SDS011;58887;51.980;4.464;2023-04-15T05:37:32;400.68;;;400.68;;
71183;SDS011;58887;51.980;4.464;2023-04-15T05:39:58;441.08;;;441.08;;
71183;SDS011;58887;51.980;4.464;2023-04-15T05:42:23;488.20;;;488.20;;
71183;SDS011;58887;51.980;4.464;2023-04-15T05:44:51;492.83;;;492.83;;
71183;SDS011;58887;51.980;4.464;2023-04-15T05:47:16;463.08;;;463.08;;
71183;SDS011;58887;51.980;4.464;2023-04-15T05:49:42;527.27;;;520.66;;
71183;SDS011;58887;51.980;4.464;2023-04-15T05:52:07;483.52;;;483.33;;
71183;SDS011;58887;51.980;4.464;2023-04-15T05:54:33;475.34;;;475.34;;
71183;SDS011;58887;51.980;4.464;2023-04-15T05:56:58;484.64;;;484.64;;
71183;SDS011;58887;51.980;4.464;2023-04-15T05:59:24;518.87;;;518.87;;
71183;SDS011;58887;51.980;4.464;2023-04-15T06:01:56;491.32;;;491.32;;
71183;SDS011;58887;51.980;4.464;2023-04-15T06:04:22;525.37;;;525.37;;
71183;SDS011;58887;51.980;4.464;2023-04-15T06:06:48;738.60;;;732.82;;
71183;SDS011;58887;51.980;4.464;2023-04-15T06:09:13;804.02;;;804.02;;
71183;SDS011;58887;51.980;4.464;2023-04-15T06:11:39;852.61;;;852.61;;
71183;SDS011;58887;51.980;4.464;2023-04-15T06:14:06;1006.00;;;1006.00;;
71183;SDS011;58887;51.980;4.464;2023-04-15T06:16:34;1114.34;;;1114.34;;
71183;SDS011;58887;51.980;4.464;2023-04-15T06:19:00;1075.87;;;1075.87;;
71183;SDS011;58887;51.980;4.464;2023-04-15T06:21:33;1056.11;;;1056.11;;
71183;SDS011;58887;51.980;4.464;2023-04-15T06:23:58;1523.49;;;1523.49;;
71183;SDS011;58887;51.980;4.464;2023-04-15T06:26:27;1321.89;;;1321.89;;
71183;SDS011;58887;51.980;4.464;2023-04-15T06:28:55;1097.61;;;1097.61;;
71183;SDS011;58887;51.980;4.464;2023-04-15T06:31:21;1289.77;;;1289.77;;
71183;SDS011;58887;51.980;4.464;2023-04-15T06:33:47;786.43;;;786.43;;
71183;SDS011;58887;51.980;4.464;2023-04-15T06:36:13;730.72;;;730.72;;
71183;SDS011;58887;51.980;4.464;2023-04-15T06:41:08;734.46;;;734.46;;
71183;SDS011;58887;51.980;4.464;2023-04-15T06:43:34;710.48;;;710.48;;
71183;SDS011;58887;51.980;4.464;2023-04-15T06:46:01;639.62;;;639.62;;
71183;SDS011;58887;51.980;4.464;2023-04-15T06:48:27;619.96;;;619.94;;
71183;SDS011;58887;51.980;4.464;2023-04-15T06:50:52;496.96;;;496.96;;
71183;SDS011;58887;51.980;4.464;2023-04-15T06:53:18;369.32;;;369.32;;
71183;SDS011;58887;51.980;4.464;2023-04-15T06:55:43;314.63;;;314.63;;
71183;SDS011;58887;51.980;4.464;2023-04-15T06:58:09;254.64;;;254.64;;
71183;SDS011;58887;51.980;4.464;2023-04-15T07:00:34;254.45;;;254.45;;
71183;SDS011;58887;51.980;4.464;2023-04-15T07:03:03;128.48;;;128.48;;
71183;SDS011;58887;51.980;4.464;2023-04-15T07:05:29;25.58;;;25.58;;
71183;SDS011;58887;51.980;4.464;2023-04-15T07:07:55;12.80;;;12.80;;
71183;SDS011;58887;51.980;4.464;2023-04-15T07:10:21;7.77;;;7.77;;
71183;SDS011;58887;51.980;4.464;2023-04-15T07:12:47;8.77;;;8.77;;
71183;SDS011;58887;51.980;4.464;2023-04-15T07:15:13;7.13;;;7.13;;
71183;SDS011;58887;51.980;4.464;2023-04-15T07:17:39;6.52;;;6.52;;
71183;SDS011;58887;51.980;4.464;2023-04-15T07:20:06;6.70;;;6.70;;
71183;SDS011;58887;51.980;4.464;2023-04-15T07:22:32;6.53;;;6.53;;
71183;SDS011;58887;51.980;4.464;2023-04-15T07:24:58;8.58;;;8.58;;
71183;SDS011;58887;51.980;4.464;2023-04-15T07:27:23;39.00;;;39.00;;
71183;SDS011;58887;51.980;4.464;2023-04-15T07:29:49;57.88;;;57.88;;
71183;SDS011;58887;51.980;4.464;2023-04-15T07:32:16;34.51;;;34.51;;
71183;SDS011;58887;51.980;4.464;2023-04-15T07:34:41;39.95;;;39.95;;
71183;SDS011;58887;51.980;4.464;2023-04-15T07:37:08;69.56;;;69.56;;
71183;SDS011;58887;51.980;4.464;2023-04-15T07:39:34;97.11;;;97.11;;
71183;SDS011;58887;51.980;4.464;2023-04-15T07:41:59;84.65;;;84.65;;
71183;SDS011;58887;51.980;4.464;2023-04-15T07:44:25;28.10;;;28.10;;
71183;SDS011;58887;51.980;4.464;2023-04-15T07:46:53;15.98;;;15.98;;
71183;SDS011;58887;51.980;4.464;2023-04-15T07:49:19;10.39;;;10.39;;
71183;SDS011;58887;51.980;4.464;2023-04-15T07:51:45;24.40;;;24.40;;
71183;SDS011;58887;51.980;4.464;2023-04-15T07:54:11;13.90;;;13.90;;
71183;SDS011;58887;51.980;4.464;2023-04-15T07:56:36;8.61;;;8.61;;
71183;SDS011;58887;51.980;4.464;2023-04-15T07:59:02;6.48;;;6.48;;
71183;SDS011;58887;51.980;4.464;2023-04-15T08:01:29;5.62;;;5.62;;
71183;SDS011;58887;51.980;4.464;2023-04-15T08:03:54;5.92;;;5.92;;
71183;SDS011;58887;51.980;4.464;2023-04-15T08:06:21;5.43;;;5.43;;
71183;SDS011;58887;51.980;4.464;2023-04-15T08:08:46;5.93;;;5.93;;
71183;SDS011;58887;51.980;4.464;2023-04-15T08:11:13;5.72;;;5.72;;
71183;SDS011;58887;51.980;4.464;2023-04-15T08:13:39;5.50;;;5.50;;
71183;SDS011;58887;51.980;4.464;2023-04-15T08:16:12;5.58;;;5.58;;
71183;SDS011;58887;51.980;4.464;2023-04-15T08:18:39;5.92;;;5.92;;
71183;SDS011;58887;51.980;4.464;2023-04-15T08:21:05;5.91;;;5.91;;
71183;SDS011;58887;51.980;4.464;2023-04-15T08:23:32;6.61;;;6.61;;
71183;SDS011;58887;51.980;4.464;2023-04-15T08:25:58;7.64;;;7.64;;
71183;SDS011;58887;51.980;4.464;2023-04-15T08:28:25;6.54;;;6.54;;
71183;SDS011;58887;51.980;4.464;2023-04-15T08:30:57;6.91;;;6.91;;
71183;SDS011;58887;51.980;4.464;2023-04-15T08:33:23;7.27;;;7.27;;
71183;SDS011;58887;51.980;4.464;2023-04-15T08:35:50;7.12;;;7.12;;
71183;SDS011;58887;51.980;4.464;2023-04-15T08:38:16;6.75;;;6.75;;
71183;SDS011;58887;51.980;4.464;2023-04-15T08:40:46;8.11;;;8.11;;
71183;SDS011;58887;51.980;4.464;2023-04-15T08:43:12;8.35;;;8.35;;
71183;SDS011;58887;51.980;4.464;2023-04-15T08:45:45;6.37;;;6.37;;
71183;SDS011;58887;51.980;4.464;2023-04-15T08:48:12;6.78;;;6.78;;
71183;SDS011;58887;51.980;4.464;2023-04-15T08:50:41;5.74;;;5.74;;
71183;SDS011;58887;51.980;4.464;2023-04-15T08:53:08;5.30;;;5.30;;
71183;SDS011;58887;51.980;4.464;2023-04-15T08:55:37;5.55;;;5.55;;
71183;SDS011;58887;51.980;4.464;2023-04-15T08:58:08;5.43;;;5.43;;
71183;SDS011;58887;51.980;4.464;2023-04-15T09:00:35;5.59;;;5.59;;
71183;SDS011;58887;51.980;4.464;2023-04-15T09:03:05;6.07;;;6.07;;
71183;SDS011;58887;51.980;4.464;2023-04-15T09:05:34;5.88;;;5.88;;
71183;SDS011;58887;51.980;4.464;2023-04-15T09:08:02;5.30;;;5.30;;
71183;SDS011;58887;51.980;4.464;2023-04-15T09:10:29;4.63;;;4.63;;
71183;SDS011;58887;51.980;4.464;2023-04-15T09:12:55;4.49;;;4.49;;
71183;SDS011;58887;51.980;4.464;2023-04-15T09:15:22;4.88;;;4.88;;
71183;SDS011;58887;51.980;4.464;2023-04-15T09:17:51;19.03;;;19.03;;
71183;SDS011;58887;51.980;4.464;2023-04-15T09:20:17;54.33;;;54.33;;
71183;SDS011;58887;51.980;4.464;2023-04-15T09:25:49;5.60;;;5.60;;
71183;SDS011;58887;51.980;4.464;2023-04-15T09:28:15;6.90;;;6.90;;
71183;SDS011;58887;51.980;4.464;2023-04-15T09:30:50;5.79;;;5.79;;
71183;SDS011;58887;51.980;4.464;2023-04-15T09:33:17;5.61;;;5.61;;
71183;SDS011;58887;51.980;4.464;2023-04-15T09:35:54;6.51;;;6.51;;
71183;SDS011;58887;51.980;4.464;2023-04-15T09:38:22;27.48;;;27.48;;
71183;SDS011;58887;51.980;4.464;2023-04-15T09:40:49;12.03;;;12.03;;
71183;SDS011;58887;51.980;4.464;2023-04-15T09:43:15;3.67;;;3.67;;
71183;SDS011;58887;51.980;4.464;2023-04-15T09:45:49;13.18;;;13.18;;
71183;SDS011;58887;51.980;4.464;2023-04-15T09:48:19;5.49;;;5.49;;
71183;SDS011;58887;51.980;4.464;2023-04-15T09:50:49;6.77;;;6.77;;
71183;SDS011;58887;51.980;4.464;2023-04-15T09:53:18;2.85;;;2.85;;
71183;SDS011;58887;51.980;4.464;2023-04-15T09:55:55;2.72;;;2.72;;
71183;SDS011;58887;51.980;4.464;2023-04-15T09:58:24;2.58;;;2.58;;
71183;SDS011;58887;51.980;4.464;2023-04-15T10:00:52;2.43;;;2.43;;
71183;SDS011;58887;51.980;4.464;2023-04-15T10:05:51;1.95;;;1.95;;
71183;SDS011;58887;51.980;4.464;2023-04-15T10:08:21;2.22;;;2.22;;
71183;SDS011;58887;51.980;4.464;2023-04-15T10:10:49;2.13;;;2.13;;
71183;SDS011;58887;51.980;4.464;2023-04-15T10:13:17;2.02;;;2.02;;
71183;SDS011;58887;51.980;4.464;2023-04-15T10:15:47;1.76;;;1.76;;
71183;SDS011;58887;51.980;4.464;2023-04-15T10:18:22;1.95;;;1.95;;
71183;SDS011;58887;51.980;4.464;2023-04-15T10:20:51;2.28;;;2.28;;
71183;SDS011;58887;51.980;4.464;2023-04-15T10:23:17;1.54;;;1.54;;
71183;SDS011;58887;51.980;4.464;2023-04-15T10:25:45;1.42;;;1.42;;
71183;SDS011;58887;51.980;4.464;2023-04-15T10:28:19;1.54;;;1.54;;
71183;SDS011;58887;51.980;4.464;2023-04-15T10:30:47;1.60;;;1.60;;
71183;SDS011;58887;51.980;4.464;2023-04-15T10:33:14;2.19;;;2.19;;
71183;SDS011;58887;51.980;4.464;2023-04-15T10:35:42;2.84;;;2.84;;
71183;SDS011;58887;51.980;4.464;2023-04-15T10:41:15;1.79;;;1.79;;
71183;SDS011;58887;51.980;4.464;2023-04-15T10:46:43;1.49;;;1.49;;
71183;SDS011;58887;51.980;4.464;2023-04-15T10:49:10;1.71;;;1.71;;
71183;SDS011;58887;51.980;4.464;2023-04-15T10:51:39;1.58;;;1.58;;
71183;SDS011;58887;51.980;4.464;2023-04-15T10:54:16;1.67;;;1.67;;
71183;SDS011;58887;51.980;4.464;2023-04-15T10:59:58;1.61;;;1.61;;
71183;SDS011;58887;51.980;4.464;2023-04-15T11:02:37;1.85;;;1.85;;
71183;SDS011;58887;51.980;4.464;2023-04-15T11:05:12;1.70;;;1.70;;
71183;SDS011;58887;51.980;4.464;2023-04-15T11:12:49;2.09;;;2.09;;
71183;SDS011;58887;51.980;4.464;2023-04-15T11:20:31;2.27;;;2.27;;
71183;SDS011;58887;51.980;4.464;2023-04-15T11:22:58;2.43;;;2.43;;
71183;SDS011;58887;51.980;4.464;2023-04-15T11:25:24;2.14;;;2.14;;
71183;SDS011;58887;51.980;4.464;2023-04-15T11:27:54;2.15;;;2.15;;
71183;SDS011;58887;51.980;4.464;2023-04-15T11:30:21;2.36;;;2.36;;
71183;SDS011;58887;51.980;4.464;2023-04-15T11:35:24;2.12;;;2.12;;
71183;SDS011;58887;51.980;4.464;2023-04-15T11:37:51;2.06;;;2.06;;
71183;SDS011;58887;51.980;4.464;2023-04-15T11:40:26;1.96;;;1.96;;
71183;SDS011;58887;51.980;4.464;2023-04-15T11:43:06;2.00;;;2.00;;
71183;SDS011;58887;51.980;4.464;2023-04-15T11:45:32;1.59;;;1.59;;
71183;SDS011;58887;51.980;4.464;2023-04-15T11:48:08;1.55;;;1.55;;
71183;SDS011;58887;51.980;4.464;2023-04-15T11:50:36;1.53;;;1.53;;
71183;SDS011;58887;51.980;4.464;2023-04-15T11:53:06;1.73;;;1.73;;
71183;SDS011;58887;51.980;4.464;2023-04-15T11:55:44;1.62;;;1.62;;
71183;SDS011;58887;51.980;4.464;2023-04-15T11:58:12;1.57;;;1.57;;
71183;SDS011;58887;51.980;4.464;2023-04-15T12:00:44;1.58;;;1.58;;
71183;SDS011;58887;51.980;4.464;2023-04-15T12:03:20;1.85;;;1.85;;
71183;SDS011;58887;51.980;4.464;2023-04-15T12:06:09;1.87;;;1.87;;
71183;SDS011;58887;51.980;4.464;2023-04-15T12:13:52;1.79;;;1.79;;
71183;SDS011;58887;51.980;4.464;2023-04-15T12:16:20;1.76;;;1.76;;
71183;SDS011;58887;51.980;4.464;2023-04-15T12:18:53;1.84;;;1.84;;
71183;SDS011;58887;51.980;4.464;2023-04-15T12:21:27;2.07;;;2.07;;
71183;SDS011;58887;51.980;4.464;2023-04-15T12:24:01;2.17;;;2.17;;
71183;SDS011;58887;51.980;4.464;2023-04-15T12:26:30;1.96;;;1.96;;
71183;SDS011;58887;51.980;4.464;2023-04-15T12:29:03;2.19;;;2.19;;
71183;SDS011;58887;51.980;4.464;2023-04-15T12:31:35;2.05;;;2.05;;
71183;SDS011;58887;51.980;4.464;2023-04-15T12:34:02;2.18;;;2.18;;
71183;SDS011;58887;51.980;4.464;2023-04-15T12:36:31;2.48;;;2.48;;
71183;SDS011;58887;51.980;4.464;2023-04-15T12:39:04;2.12;;;2.12;;
71183;SDS011;58887;51.980;4.464;2023-04-15T12:41:32;1.87;;;1.87;;
71183;SDS011;58887;51.980;4.464;2023-04-15T12:43:58;2.13;;;2.13;;
71183;SDS011;58887;51.980;4.464;2023-04-15T12:46:25;2.26;;;2.26;;
71183;SDS011;58887;51.980;4.464;2023-04-15T12:48:51;2.10;;;2.10;;
71183;SDS011;58887;51.980;4.464;2023-04-15T12:51:17;2.80;;;2.80;;
71183;SDS011;58887;51.980;4.464;2023-04-15T12:53:43;6.40;;;6.40;;
71183;SDS011;58887;51.980;4.464;2023-04-15T12:56:11;17.12;;;17.12;;
71183;SDS011;58887;51.980;4.464;2023-04-15T12:58:50;29.39;;;29.39;;
71183;SDS011;58887;51.980;4.464;2023-04-15T13:01:15;19.02;;;19.02;;
71183;SDS011;58887;51.980;4.464;2023-04-15T13:03:41;1.91;;;1.91;;
71183;SDS011;58887;51.980;4.464;2023-04-15T13:06:07;2.14;;;2.14;;
71183;SDS011;58887;51.980;4.464;2023-04-15T13:08:32;2.10;;;2.10;;
71183;SDS011;58887;51.980;4.464;2023-04-15T13:10:58;2.03;;;2.03;;
71183;SDS011;58887;51.980;4.464;2023-04-15T13:13:24;2.05;;;2.05;;
71183;SDS011;58887;51.980;4.464;2023-04-15T13:15:49;1.81;;;1.81;;
71183;SDS011;58887;51.980;4.464;2023-04-15T13:18:15;1.84;;;1.84;;
71183;SDS011;58887;51.980;4.464;2023-04-15T13:20:41;2.23;;;2.23;;
71183;SDS011;58887;51.980;4.464;2023-04-15T13:23:07;1.82;;;1.82;;
71183;SDS011;58887;51.980;4.464;2023-04-15T13:25:33;1.50;;;1.50;;
71183;SDS011;58887;51.980;4.464;2023-04-15T13:27:58;1.50;;;1.50;;
71183;SDS011;58887;51.980;4.464;2023-04-15T13:30:25;1.55;;;1.55;;
71183;SDS011;58887;51.980;4.464;2023-04-15T13:32:52;1.69;;;1.69;;
71183;SDS011;58887;51.980;4.464;2023-04-15T13:35:19;1.55;;;1.55;;
71183;SDS011;58887;51.980;4.464;2023-04-15T13:37:45;1.53;;;1.53;;
71183;SDS011;58887;51.980;4.464;2023-04-15T13:40:12;1.35;;;1.35;;
71183;SDS011;58887;51.980;4.464;2023-04-15T13:42:38;1.38;;;1.38;;
71183;SDS011;58887;51.980;4.464;2023-04-15T13:45:03;1.54;;;1.54;;
71183;SDS011;58887;51.980;4.464;2023-04-15T13:47:29;1.58;;;1.58;;
71183;SDS011;58887;51.980;4.464;2023-04-15T13:49:55;1.61;;;1.61;;
71183;SDS011;58887;51.980;4.464;2023-04-15T13:52:21;1.37;;;1.37;;
71183;SDS011;58887;51.980;4.464;2023-04-15T13:54:48;1.39;;;1.39;;
71183;SDS011;58887;51.980;4.464;2023-04-15T13:57:14;1.46;;;1.46;;
71183;SDS011;58887;51.980;4.464;2023-04-15T13:59:40;1.53;;;1.53;;
71183;SDS011;58887;51.980;4.464;2023-04-15T14:02:05;1.43;;;1.43;;
71183;SDS011;58887;51.980;4.464;2023-04-15T14:04:31;1.47;;;1.47;;
71183;SDS011;58887;51.980;4.464;2023-04-15T14:06:57;1.75;;;1.75;;
71183;SDS011;58887;51.980;4.464;2023-04-15T14:09:22;1.63;;;1.63;;
71183;SDS011;58887;51.980;4.464;2023-04-15T14:11:51;1.58;;;1.58;;
71183;SDS011;58887;51.980;4.464;2023-04-15T14:14:18;1.74;;;1.74;;
71183;SDS011;58887;51.980;4.464;2023-04-15T14:16:43;1.58;;;1.58;;
71183;SDS011;58887;51.980;4.464;2023-04-15T14:19:09;1.86;;;1.86;;
71183;SDS011;58887;51.980;4.464;2023-04-15T14:21:34;1.45;;;1.45;;
71183;SDS011;58887;51.980;4.464;2023-04-15T14:24:00;1.61;;;1.61;;
71183;SDS011;58887;51.980;4.464;2023-04-15T14:26:25;1.45;;;1.45;;
71183;SDS011;58887;51.980;4.464;2023-04-15T14:28:51;1.61;;;1.61;;
71183;SDS011;58887;51.980;4.464;2023-04-15T14:31:18;1.85;;;1.85;;
71183;SDS011;58887;51.980;4.464;2023-04-15T14:33:44;1.47;;;1.47;;
71183;SDS011;58887;51.980;4.464;2023-04-15T14:36:11;1.41;;;1.41;;
71183;SDS011;58887;51.980;4.464;2023-04-15T14:38:37;1.36;;;1.36;;
71183;SDS011;58887;51.980;4.464;2023-04-15T14:41:04;1.60;;;1.58;;
71183;SDS011;58887;51.980;4.464;2023-04-15T14:43:30;1.47;;;1.46;;
71183;SDS011;58887;51.980;4.464;2023-04-15T14:45:55;1.49;;;1.46;;
71183;SDS011;58887;51.980;4.464;2023-04-15T14:48:22;1.48;;;1.48;;
71183;SDS011;58887;51.980;4.464;2023-04-15T14:50:48;1.60;;;1.60;;
71183;SDS011;58887;51.980;4.464;2023-04-15T14:53:15;1.54;;;1.54;;
71183;SDS011;58887;51.980;4.464;2023-04-15T14:55:40;1.62;;;1.62;;
71183;SDS011;58887;51.980;4.464;2023-04-15T14:58:08;1.72;;;1.72;;